sensor_id;sensor_type;location;lat;lon;timestamp;temperature;humidity
68922;DHT22;55959;51.244;5.724;2023-10-13T00:02:02;21.10;76.70
68922;DHT22;55959;51.244;5.724;2023-10-13T00:04:31;21.10;76.70
68922;DHT22;55959;51.244;5.724;2023-10-13T00:07:04;21.10;76.60
68922;DHT22;55959;51.244;5.724;2023-10-13T00:09:33;21.10;76.80
68922;DHT22;55959;51.244;5.724;2023-10-13T00:12:03;21.10;76.70
68922;DHT22;55959;51.244;5.724;2023-10-13T00:14:34;21.20;76.60
68922;DHT22;55959;51.244;5.724;2023-10-13T00:17:05;21.20;76.60
68922;DHT22;55959;51.244;5.724;2023-10-13T00:19:38;21.20;76.70
68922;DHT22;55959;51.244;5.724;2023-10-13T00:22:10;21.20;76.60
68922;DHT22;55959;51.244;5.724;2023-10-13T00:24:40;21.20;76.60
68922;DHT22;55959;51.244;5.724;2023-10-13T00:27:19;21.20;76.60
68922;DHT22;55959;51.244;5.724;2023-10-13T00:30:00;21.20;76.60
68922;DHT22;55959;51.244;5.724;2023-10-13T00:32:47;21.20;76.60
68922;DHT22;55959;51.244;5.724;2023-10-13T00:35:20;21.20;76.60
68922;DHT22;55959;51.244;5.724;2023-10-13T00:38:03;21.20;76.50
68922;DHT22;55959;51.244;5.724;2023-10-13T00:40:41;21.20;76.60
68922;DHT22;55959;51.244;5.724;2023-10-13T00:43:08;21.20;76.50
68922;DHT22;55959;51.244;5.724;2023-10-13T00:45:54;21.20;76.60
68922;DHT22;55959;51.244;5.724;2023-10-13T00:48:26;21.20;76.60
68922;DHT22;55959;51.244;5.724;2023-10-13T00:51:06;21.20;76.60
68922;DHT22;55959;51.244;5.724;2023-10-13T00:53:33;21.20;76.60
68922;DHT22;55959;51.244;5.724;2023-10-13T00:56:03;21.30;76.60
68922;DHT22;55959;51.244;5.724;2023-10-13T00:58:45;21.20;76.50
68922;DHT22;55959;51.244;5.724;2023-10-13T01:01:18;21.30;76.60
68922;DHT22;55959;51.244;5.724;2023-10-13T01:03:54;21.20;76.60
68922;DHT22;55959;51.244;5.724;2023-10-13T01:06:21;21.30;76.60
68922;DHT22;55959;51.244;5.724;2023-10-13T01:09:08;21.30;76.60
68922;DHT22;55959;51.244;5.724;2023-10-13T01:11:38;21.30;76.60
68922;DHT22;55959;51.244;5.724;2023-10-13T01:14:12;21.30;76.60
68922;DHT22;55959;51.244;5.724;2023-10-13T01:16:40;21.20;76.60
68922;DHT22;55959;51.244;5.724;2023-10-13T01:19:10;21.30;76.80
68922;DHT22;55959;51.244;5.724;2023-10-13T01:21:38;21.30;76.80
68922;DHT22;55959;51.244;5.724;2023-10-13T01:24:07;21.30;76.80
68922;DHT22;55959;51.244;5.724;2023-10-13T01:26:36;21.30;76.80
68922;DHT22;55959;51.244;5.724;2023-10-13T01:29:07;21.30;76.80
68922;DHT22;55959;51.244;5.724;2023-10-13T01:31:41;21.30;76.80
68922;DHT22;55959;51.244;5.724;2023-10-13T01:34:12;21.30;76.90
68922;DHT22;55959;51.244;5.724;2023-10-13T01:36:38;21.30;76.80
68922;DHT22;55959;51.244;5.724;2023-10-13T01:39:07;21.30;77.60
68922;DHT22;55959;51.244;5.724;2023-10-13T01:41:33;21.30;76.80
68922;DHT22;55959;51.244;5.724;2023-10-13T01:44:02;21.30;76.70
68922;DHT22;55959;51.244;5.724;2023-10-13T01:46:29;21.30;76.80
68922;DHT22;55959;51.244;5.724;2023-10-13T01:48:55;21.30;76.70
68922;DHT22;55959;51.244;5.724;2023-10-13T01:51:23;21.30;76.80
68922;DHT22;55959;51.244;5.724;2023-10-13T01:53:49;21.30;76.80
68922;DHT22;55959;51.244;5.724;2023-10-13T01:56:22;21.30;76.70
68922;DHT22;55959;51.244;5.724;2023-10-13T01:58:49;21.30;76.80
68922;DHT22;55959;51.244;5.724;2023-10-13T02:01:15;21.30;76.80
68922;DHT22;55959;51.244;5.724;2023-10-13T02:03:52;21.30;76.80
68922;DHT22;55959;51.244;5.724;2023-10-13T02:06:27;21.30;76.80
68922;DHT22;55959;51.244;5.724;2023-10-13T02:08:59;21.30;76.80
68922;DHT22;55959;51.244;5.724;2023-10-13T02:11:36;21.30;76.80
68922;DHT22;55959;51.244;5.724;2023-10-13T02:14:03;21.30;76.90
68922;DHT22;55959;51.244;5.724;2023-10-13T02:16:29;21.30;76.90
68922;DHT22;55959;51.244;5.724;2023-10-13T02:18:57;21.30;76.90
68922;DHT22;55959;51.244;5.724;2023-10-13T02:21:32;21.30;76.90
68922;DHT22;55959;51.244;5.724;2023-10-13T02:24:00;21.30;77.00
68922;DHT22;55959;51.244;5.724;2023-10-13T02:26:32;21.30;77.00
68922;DHT22;55959;51.244;5.724;2023-10-13T02:28:59;21.30;77.00
68922;DHT22;55959;51.244;5.724;2023-10-13T02:31:29;21.30;77.00
68922;DHT22;55959;51.244;5.724;2023-10-13T02:33:55;21.30;77.10
68922;DHT22;55959;51.244;5.724;2023-10-13T02:36:21;21.30;77.00
68922;DHT22;55959;51.244;5.724;2023-10-13T02:38:49;21.30;77.00
68922;DHT22;55959;51.244;5.724;2023-10-13T02:41:20;21.30;77.10
68922;DHT22;55959;51.244;5.724;2023-10-13T02:43:52;21.30;77.20
68922;DHT22;55959;51.244;5.724;2023-10-13T02:46:22;21.30;77.20
68922;DHT22;55959;51.244;5.724;2023-10-13T02:48:49;21.40;77.20
68922;DHT22;55959;51.244;5.724;2023-10-13T02:51:23;21.40;77.30
68922;DHT22;55959;51.244;5.724;2023-10-13T02:54:01;21.30;77.20
68922;DHT22;55959;51.244;5.724;2023-10-13T02:56:29;21.40;77.30
68922;DHT22;55959;51.244;5.724;2023-10-13T02:58:55;21.40;77.30
68922;DHT22;55959;51.244;5.724;2023-10-13T03:01:32;21.40;77.40
68922;DHT22;55959;51.244;5.724;2023-10-13T03:04:00;21.40;77.40
68922;DHT22;55959;51.244;5.724;2023-10-13T03:06:28;21.40;77.40
68922;DHT22;55959;51.244;5.724;2023-10-13T03:09:04;21.40;77.40
68922;DHT22;55959;51.244;5.724;2023-10-13T03:11:42;21.40;77.40
68922;DHT22;55959;51.244;5.724;2023-10-13T03:14:18;21.40;77.40
68922;DHT22;55959;51.244;5.724;2023-10-13T03:17:02;21.40;77.40
68922;DHT22;55959;51.244;5.724;2023-10-13T03:19:31;21.40;77.40
68922;DHT22;55959;51.244;5.724;2023-10-13T03:22:03;21.40;77.40
68922;DHT22;55959;51.244;5.724;2023-10-13T03:24:35;21.40;77.40
68922;DHT22;55959;51.244;5.724;2023-10-13T03:27:02;21.40;77.40
68922;DHT22;55959;51.244;5.724;2023-10-13T03:29:39;21.40;77.40
68922;DHT22;55959;51.244;5.724;2023-10-13T03:32:19;21.40;77.40
68922;DHT22;55959;51.244;5.724;2023-10-13T03:34:46;21.40;77.50
68922;DHT22;55959;51.244;5.724;2023-10-13T03:37:35;21.40;77.50
68922;DHT22;55959;51.244;5.724;2023-10-13T03:40:11;21.40;77.60
68922;DHT22;55959;51.244;5.724;2023-10-13T03:42:51;21.40;77.60
68922;DHT22;55959;51.244;5.724;2023-10-13T03:45:35;21.40;77.60
68922;DHT22;55959;51.244;5.724;2023-10-13T03:48:06;21.40;77.60
68922;DHT22;55959;51.244;5.724;2023-10-13T03:50:37;21.40;77.80
68922;DHT22;55959;51.244;5.724;2023-10-13T03:53:12;21.40;77.80
68922;DHT22;55959;51.244;5.724;2023-10-13T03:55:39;21.40;77.70
68922;DHT22;55959;51.244;5.724;2023-10-13T03:58:05;21.40;77.80
68922;DHT22;55959;51.244;5.724;2023-10-13T04:00:32;21.40;77.80
68922;DHT22;55959;51.244;5.724;2023-10-13T04:02:58;21.40;77.80
68922;DHT22;55959;51.244;5.724;2023-10-13T04:05:41;21.40;77.80
68922;DHT22;55959;51.244;5.724;2023-10-13T04:08:26;21.40;77.80
68922;DHT22;55959;51.244;5.724;2023-10-13T04:10:53;21.40;78.00
68922;DHT22;55959;51.244;5.724;2023-10-13T04:13:20;21.40;78.00
68922;DHT22;55959;51.244;5.724;2023-10-13T04:16:07;21.40;78.00
68922;DHT22;55959;51.244;5.724;2023-10-13T04:19:01;21.40;78.00
68922;DHT22;55959;51.244;5.724;2023-10-13T04:21:27;21.40;78.10
68922;DHT22;55959;51.244;5.724;2023-10-13T04:24:06;21.40;78.20
68922;DHT22;55959;51.244;5.724;2023-10-13T04:26:44;21.40;78.20
68922;DHT22;55959;51.244;5.724;2023-10-13T04:29:29;21.40;78.40
68922;DHT22;55959;51.244;5.724;2023-10-13T04:32:13;21.40;78.40
68922;DHT22;55959;51.244;5.724;2023-10-13T04:34:41;21.40;78.50
68922;DHT22;55959;51.244;5.724;2023-10-13T04:37:11;21.40;78.50
68922;DHT22;55959;51.244;5.724;2023-10-13T04:39:56;21.40;78.50
68922;DHT22;55959;51.244;5.724;2023-10-13T04:42:37;21.40;78.50
68922;DHT22;55959;51.244;5.724;2023-10-13T04:45:16;21.40;78.50
68922;DHT22;55959;51.244;5.724;2023-10-13T04:48:03;21.40;78.60
68922;DHT22;55959;51.244;5.724;2023-10-13T04:50:41;21.40;79.40
68922;DHT22;55959;51.244;5.724;2023-10-13T04:53:15;21.40;78.70
68922;DHT22;55959;51.244;5.724;2023-10-13T04:56:21;21.40;78.80
68922;DHT22;55959;51.244;5.724;2023-10-13T04:59:05;21.40;78.90
68922;DHT22;55959;51.244;5.724;2023-10-13T05:01:49;21.40;79.00
68922;DHT22;55959;51.244;5.724;2023-10-13T05:04:33;21.30;79.00
68922;DHT22;55959;51.244;5.724;2023-10-13T05:07:24;21.30;79.10
68922;DHT22;55959;51.244;5.724;2023-10-13T05:10:08;21.40;79.30
68922;DHT22;55959;51.244;5.724;2023-10-13T05:12:52;21.30;79.40
68922;DHT22;55959;51.244;5.724;2023-10-13T05:15:49;21.30;79.40
68922;DHT22;55959;51.244;5.724;2023-10-13T05:18:34;21.40;79.60
68922;DHT22;55959;51.244;5.724;2023-10-13T05:21:19;21.40;79.60
68922;DHT22;55959;51.244;5.724;2023-10-13T05:24:06;21.40;79.80
68922;DHT22;55959;51.244;5.724;2023-10-13T05:26:52;21.40;79.80
68922;DHT22;55959;51.244;5.724;2023-10-13T05:29:43;21.30;79.80
68922;DHT22;55959;51.244;5.724;2023-10-13T05:32:29;21.30;79.80
68922;DHT22;55959;51.244;5.724;2023-10-13T05:35:15;21.40;79.90
68922;DHT22;55959;51.244;5.724;2023-10-13T05:38:00;21.40;80.00
68922;DHT22;55959;51.244;5.724;2023-10-13T05:40:56;21.40;79.90
68922;DHT22;55959;51.244;5.724;2023-10-13T05:43:42;21.40;79.90
68922;DHT22;55959;51.244;5.724;2023-10-13T05:46:27;21.40;79.80
68922;DHT22;55959;51.244;5.724;2023-10-13T05:48:53;21.40;79.80
68922;DHT22;55959;51.244;5.724;2023-10-13T05:51:26;21.40;79.70
68922;DHT22;55959;51.244;5.724;2023-10-13T05:54:05;21.40;79.60
68922;DHT22;55959;51.244;5.724;2023-10-13T05:56:43;21.40;79.40
68922;DHT22;55959;51.244;5.724;2023-10-13T05:59:30;21.40;80.20
68922;DHT22;55959;51.244;5.724;2023-10-13T06:02:16;21.40;79.40
68922;DHT22;55959;51.244;5.724;2023-10-13T06:05:06;21.40;79.30
68922;DHT22;55959;51.244;5.724;2023-10-13T06:07:52;21.40;79.30
68922;DHT22;55959;51.244;5.724;2023-10-13T06:10:36;21.40;79.30
68922;DHT22;55959;51.244;5.724;2023-10-13T06:13:21;21.40;79.20
68922;DHT22;55959;51.244;5.724;2023-10-13T06:16:10;21.40;79.20
68922;DHT22;55959;51.244;5.724;2023-10-13T06:18:55;21.40;79.20
68922;DHT22;55959;51.244;5.724;2023-10-13T06:21:40;21.40;79.10
68922;DHT22;55959;51.244;5.724;2023-10-13T06:24:25;21.40;79.00
68922;DHT22;55959;51.244;5.724;2023-10-13T06:27:09;21.50;79.10
68922;DHT22;55959;51.244;5.724;2023-10-13T06:29:54;21.50;79.00
68922;DHT22;55959;51.244;5.724;2023-10-13T06:32:20;21.50;79.00
68922;DHT22;55959;51.244;5.724;2023-10-13T06:34:55;21.50;79.00
68922;DHT22;55959;51.244;5.724;2023-10-13T06:37:25;21.50;79.00
68922;DHT22;55959;51.244;5.724;2023-10-13T06:39:56;21.50;78.90
68922;DHT22;55959;51.244;5.724;2023-10-13T06:42:28;21.60;79.00
68922;DHT22;55959;51.244;5.724;2023-10-13T06:44:54;21.50;78.80
68922;DHT22;55959;51.244;5.724;2023-10-13T06:47:24;21.50;78.80
68922;DHT22;55959;51.244;5.724;2023-10-13T06:49:50;21.60;78.90
68922;DHT22;55959;51.244;5.724;2023-10-13T06:52:18;21.60;78.80
68922;DHT22;55959;51.244;5.724;2023-10-13T06:54:43;21.60;78.90
68922;DHT22;55959;51.244;5.724;2023-10-13T06:57:09;21.60;78.90
68922;DHT22;55959;51.244;5.724;2023-10-13T06:59:46;21.60;79.00
68922;DHT22;55959;51.244;5.724;2023-10-13T07:02:12;21.60;79.00
68922;DHT22;55959;51.244;5.724;2023-10-13T07:04:50;21.60;78.90
68922;DHT22;55959;51.244;5.724;2023-10-13T07:07:39;21.60;78.90
68922;DHT22;55959;51.244;5.724;2023-10-13T07:10:09;21.70;79.00
68922;DHT22;55959;51.244;5.724;2023-10-13T07:12:35;21.70;79.10
68922;DHT22;55959;51.244;5.724;2023-10-13T07:15:01;21.70;79.00
68922;DHT22;55959;51.244;5.724;2023-10-13T07:17:42;21.70;79.00
68922;DHT22;55959;51.244;5.724;2023-10-13T07:20:11;21.70;79.00
68922;DHT22;55959;51.244;5.724;2023-10-13T07:22:50;21.70;79.00
68922;DHT22;55959;51.244;5.724;2023-10-13T07:25:29;21.70;79.00
68922;DHT22;55959;51.244;5.724;2023-10-13T07:28:04;21.70;79.00
68922;DHT22;55959;51.244;5.724;2023-10-13T07:30:34;21.70;79.00
68922;DHT22;55959;51.244;5.724;2023-10-13T07:33:15;21.70;78.80
68922;DHT22;55959;51.244;5.724;2023-10-13T07:35:46;21.70;78.80
68922;DHT22;55959;51.244;5.724;2023-10-13T07:38:25;21.70;78.70
68922;DHT22;55959;51.244;5.724;2023-10-13T07:40:52;21.80;78.60
68922;DHT22;55959;51.244;5.724;2023-10-13T07:43:17;21.80;78.60
68922;DHT22;55959;51.244;5.724;2023-10-13T07:45:47;21.80;78.80
68922;DHT22;55959;51.244;5.724;2023-10-13T07:48:19;21.80;78.70
68922;DHT22;55959;51.244;5.724;2023-10-13T07:50:45;21.80;78.60
68922;DHT22;55959;51.244;5.724;2023-10-13T07:53:45;21.90;78.50
68922;DHT22;55959;51.244;5.724;2023-10-13T07:56:14;21.90;78.40
68922;DHT22;55959;51.244;5.724;2023-10-13T07:58:44;21.90;78.30
68922;DHT22;55959;51.244;5.724;2023-10-13T08:01:18;21.90;78.20
68922;DHT22;55959;51.244;5.724;2023-10-13T08:03:46;21.90;78.10
68922;DHT22;55959;51.244;5.724;2023-10-13T08:06:14;22.00;77.90
68922;DHT22;55959;51.244;5.724;2023-10-13T08:08:40;22.00;77.90
68922;DHT22;55959;51.244;5.724;2023-10-13T08:11:10;22.10;77.90
68922;DHT22;55959;51.244;5.724;2023-10-13T08:13:54;22.10;78.00
68922;DHT22;55959;51.244;5.724;2023-10-13T08:16:40;22.10;77.70
68922;DHT22;55959;51.244;5.724;2023-10-13T08:19:26;22.10;77.30
68922;DHT22;55959;51.244;5.724;2023-10-13T08:21:54;22.20;76.80
68922;DHT22;55959;51.244;5.724;2023-10-13T08:24:47;22.20;76.50
68922;DHT22;55959;51.244;5.724;2023-10-13T08:27:18;22.20;76.70
68922;DHT22;55959;51.244;5.724;2023-10-13T08:30:01;22.20;75.70
68922;DHT22;55959;51.244;5.724;2023-10-13T08:32:28;22.20;75.70
68922;DHT22;55959;51.244;5.724;2023-10-13T08:37:21;22.30;75.40
68922;DHT22;55959;51.244;5.724;2023-10-13T08:39:54;22.40;75.10
68922;DHT22;55959;51.244;5.724;2023-10-13T08:42:44;22.40;74.60
68922;DHT22;55959;51.244;5.724;2023-10-13T08:45:12;22.40;74.50
68922;DHT22;55959;51.244;5.724;2023-10-13T08:47:57;22.40;74.30
68922;DHT22;55959;51.244;5.724;2023-10-13T08:53:20;22.50;73.70
68922;DHT22;55959;51.244;5.724;2023-10-13T08:56:03;22.50;73.20
68922;DHT22;55959;51.244;5.724;2023-10-13T08:58:44;22.60;72.90
68922;DHT22;55959;51.244;5.724;2023-10-13T09:01:28;22.60;72.40
68922;DHT22;55959;51.244;5.724;2023-10-13T09:04:14;22.60;72.00
68922;DHT22;55959;51.244;5.724;2023-10-13T09:12:11;22.70;71.50
68922;DHT22;55959;51.244;5.724;2023-10-13T09:15:00;22.80;71.50
68922;DHT22;55959;51.244;5.724;2023-10-13T09:17:47;22.80;70.60
68922;DHT22;55959;51.244;5.724;2023-10-13T09:20:17;22.80;69.90
68922;DHT22;55959;51.244;5.724;2023-10-13T09:23:15;22.80;68.90
68922;DHT22;55959;51.244;5.724;2023-10-13T09:25:51;22.90;69.10
68922;DHT22;55959;51.244;5.724;2023-10-13T09:28:27;22.90;69.30
68922;DHT22;55959;51.244;5.724;2023-10-13T09:30:55;22.90;69.10
68922;DHT22;55959;51.244;5.724;2023-10-13T09:33:28;22.90;68.70
68922;DHT22;55959;51.244;5.724;2023-10-13T09:36:13;23.00;68.30
68922;DHT22;55959;51.244;5.724;2023-10-13T09:38:41;23.00;68.40
68922;DHT22;55959;51.244;5.724;2023-10-13T09:41:29;23.00;68.10
68922;DHT22;55959;51.244;5.724;2023-10-13T09:43:57;23.00;67.70
68922;DHT22;55959;51.244;5.724;2023-10-13T09:46:26;23.00;67.40
68922;DHT22;55959;51.244;5.724;2023-10-13T09:49:09;23.10;67.50
68922;DHT22;55959;51.244;5.724;2023-10-13T09:51:48;23.10;67.30
68922;DHT22;55959;51.244;5.724;2023-10-13T09:54:25;23.10;67.10
68922;DHT22;55959;51.244;5.724;2023-10-13T09:57:08;23.20;67.50
68922;DHT22;55959;51.244;5.724;2023-10-13T10:00:02;23.20;67.50
68922;DHT22;55959;51.244;5.724;2023-10-13T10:02:53;23.30;67.40
68922;DHT22;55959;51.244;5.724;2023-10-13T10:05:26;23.30;66.90
68922;DHT22;55959;51.244;5.724;2023-10-13T10:07:56;23.30;66.50
68922;DHT22;55959;51.244;5.724;2023-10-13T10:10:32;23.40;65.50
68922;DHT22;55959;51.244;5.724;2023-10-13T10:13:21;23.40;65.60
68922;DHT22;55959;51.244;5.724;2023-10-13T10:16:07;23.50;65.10
68922;DHT22;55959;51.244;5.724;2023-10-13T10:18:41;23.50;64.90
68922;DHT22;55959;51.244;5.724;2023-10-13T10:21:07;23.60;65.00
68922;DHT22;55959;51.244;5.724;2023-10-13T10:23:33;23.60;65.00
68922;DHT22;55959;51.244;5.724;2023-10-13T10:26:14;23.70;64.70
68922;DHT22;55959;51.244;5.724;2023-10-13T10:28:45;23.70;64.40
68922;DHT22;55959;51.244;5.724;2023-10-13T10:31:13;23.80;64.40
68922;DHT22;55959;51.244;5.724;2023-10-13T10:33:47;23.80;64.10
68922;DHT22;55959;51.244;5.724;2023-10-13T10:36:17;23.90;63.90
68922;DHT22;55959;51.244;5.724;2023-10-13T10:38:56;24.00;63.90
68922;DHT22;55959;51.244;5.724;2023-10-13T10:41:29;24.00;63.00
68922;DHT22;55959;51.244;5.724;2023-10-13T10:44:15;24.10;62.80
68922;DHT22;55959;51.244;5.724;2023-10-13T10:47:19;24.10;63.30
68922;DHT22;55959;51.244;5.724;2023-10-13T10:49:59;24.20;63.10
68922;DHT22;55959;51.244;5.724;2023-10-13T10:52:34;24.20;62.40
68922;DHT22;55959;51.244;5.724;2023-10-13T10:55:04;24.30;62.00
68922;DHT22;55959;51.244;5.724;2023-10-13T10:57:36;24.30;61.50
68922;DHT22;55959;51.244;5.724;2023-10-13T11:00:21;24.40;61.10
68922;DHT22;55959;51.244;5.724;2023-10-13T11:02:57;24.40;60.20
68922;DHT22;55959;51.244;5.724;2023-10-13T11:05:23;24.40;60.30
68922;DHT22;55959;51.244;5.724;2023-10-13T11:07:58;24.50;60.50
68922;DHT22;55959;51.244;5.724;2023-10-13T11:10:24;24.50;60.30
68922;DHT22;55959;51.244;5.724;2023-10-13T11:12:57;24.60;60.10
68922;DHT22;55959;51.244;5.724;2023-10-13T11:15:46;24.60;59.20
68922;DHT22;55959;51.244;5.724;2023-10-13T11:18:14;24.70;58.80
68922;DHT22;55959;51.244;5.724;2023-10-13T11:20:49;24.70;58.60
68922;DHT22;55959;51.244;5.724;2023-10-13T11:23:21;24.70;58.70
68922;DHT22;55959;51.244;5.724;2023-10-13T11:25:59;24.80;58.60
68922;DHT22;55959;51.244;5.724;2023-10-13T11:28:25;24.80;58.80
68922;DHT22;55959;51.244;5.724;2023-10-13T11:30:55;24.90;58.60
68922;DHT22;55959;51.244;5.724;2023-10-13T11:33:25;24.90;58.60
68922;DHT22;55959;51.244;5.724;2023-10-13T11:35:58;25.00;58.00
68922;DHT22;55959;51.244;5.724;2023-10-13T11:38:32;25.00;57.90
68922;DHT22;55959;51.244;5.724;2023-10-13T11:41:05;25.10;57.80
68922;DHT22;55959;51.244;5.724;2023-10-13T11:43:41;25.20;57.70
68922;DHT22;55959;51.244;5.724;2023-10-13T11:46:12;25.30;57.60
68922;DHT22;55959;51.244;5.724;2023-10-13T11:48:42;25.30;57.40
68922;DHT22;55959;51.244;5.724;2023-10-13T11:51:10;25.30;57.50
68922;DHT22;55959;51.244;5.724;2023-10-13T11:53:50;25.40;57.50
68922;DHT22;55959;51.244;5.724;2023-10-13T11:56:20;25.40;57.50
68922;DHT22;55959;51.244;5.724;2023-10-13T11:58:47;25.50;57.20
68922;DHT22;55959;51.244;5.724;2023-10-13T12:01:13;25.60;57.00
68922;DHT22;55959;51.244;5.724;2023-10-13T12:03:43;25.60;56.70
68922;DHT22;55959;51.244;5.724;2023-10-13T12:06:33;25.60;56.30
68922;DHT22;55959;51.244;5.724;2023-10-13T12:09:08;25.70;56.00
68922;DHT22;55959;51.244;5.724;2023-10-13T12:11:44;25.70;55.90
68922;DHT22;55959;51.244;5.724;2023-10-13T12:14:14;25.70;55.80
68922;DHT22;55959;51.244;5.724;2023-10-13T12:17:05;25.80;55.40
68922;DHT22;55959;51.244;5.724;2023-10-13T12:19:36;25.80;55.10
68922;DHT22;55959;51.244;5.724;2023-10-13T12:22:04;25.70;54.50
68922;DHT22;55959;51.244;5.724;2023-10-13T12:24:33;25.80;54.80
68922;DHT22;55959;51.244;5.724;2023-10-13T12:27:02;25.70;54.40
68922;DHT22;55959;51.244;5.724;2023-10-13T12:29:43;25.80;54.40
68922;DHT22;55959;51.244;5.724;2023-10-13T12:32:12;25.80;53.80
68922;DHT22;55959;51.244;5.724;2023-10-13T12:34:39;25.80;53.80
68922;DHT22;55959;51.244;5.724;2023-10-13T12:37:25;25.80;54.10
68922;DHT22;55959;51.244;5.724;2023-10-13T12:40:04;25.80;54.30
68922;DHT22;55959;51.244;5.724;2023-10-13T12:42:50;25.80;54.20
68922;DHT22;55959;51.244;5.724;2023-10-13T12:45:45;25.90;54.10
68922;DHT22;55959;51.244;5.724;2023-10-13T12:48:31;25.90;54.10
68922;DHT22;55959;51.244;5.724;2023-10-13T12:51:16;25.90;54.20
68922;DHT22;55959;51.244;5.724;2023-10-13T12:53:55;25.90;54.40
68922;DHT22;55959;51.244;5.724;2023-10-13T12:56:30;26.00;53.70
68922;DHT22;55959;51.244;5.724;2023-10-13T12:58:56;26.00;53.30
68922;DHT22;55959;51.244;5.724;2023-10-13T13:01:26;26.10;53.10
68922;DHT22;55959;51.244;5.724;2023-10-13T13:03:58;26.10;53.00
68922;DHT22;55959;51.244;5.724;2023-10-13T13:06:27;26.10;52.60
68922;DHT22;55959;51.244;5.724;2023-10-13T13:08:56;26.10;52.50
68922;DHT22;55959;51.244;5.724;2023-10-13T13:11:23;26.20;52.50
68922;DHT22;55959;51.244;5.724;2023-10-13T13:13:49;26.20;52.50
68922;DHT22;55959;51.244;5.724;2023-10-13T13:16:16;26.10;52.50
68922;DHT22;55959;51.244;5.724;2023-10-13T13:18:44;26.20;52.50
68922;DHT22;55959;51.244;5.724;2023-10-13T13:21:10;26.20;52.50
68922;DHT22;55959;51.244;5.724;2023-10-13T13:23:46;26.20;52.30
68922;DHT22;55959;51.244;5.724;2023-10-13T13:26:12;26.20;52.40
68922;DHT22;55959;51.244;5.724;2023-10-13T13:28:47;26.20;52.20
68922;DHT22;55959;51.244;5.724;2023-10-13T13:31:17;26.20;52.40
68922;DHT22;55959;51.244;5.724;2023-10-13T13:33:54;26.20;52.20
68922;DHT22;55959;51.244;5.724;2023-10-13T13:36:21;26.20;52.50
68922;DHT22;55959;51.244;5.724;2023-10-13T13:38:48;26.20;52.10
68922;DHT22;55959;51.244;5.724;2023-10-13T13:41:20;26.20;52.20
68922;DHT22;55959;51.244;5.724;2023-10-13T13:43:48;26.10;52.10
68922;DHT22;55959;51.244;5.724;2023-10-13T13:46:25;26.10;52.30
68922;DHT22;55959;51.244;5.724;2023-10-13T13:48:58;26.10;52.10
68922;DHT22;55959;51.244;5.724;2023-10-13T13:51:26;26.10;52.20
68922;DHT22;55959;51.244;5.724;2023-10-13T13:53:54;26.10;52.00
68922;DHT22;55959;51.244;5.724;2023-10-13T13:56:21;26.10;52.00
68922;DHT22;55959;51.244;5.724;2023-10-13T13:58:51;26.10;52.20
68922;DHT22;55959;51.244;5.724;2023-10-13T14:01:19;26.00;52.40
68922;DHT22;55959;51.244;5.724;2023-10-13T14:03:51;26.00;52.20
68922;DHT22;55959;51.244;5.724;2023-10-13T14:06:22;26.00;52.30
68922;DHT22;55959;51.244;5.724;2023-10-13T14:08:50;26.00;51.90
68922;DHT22;55959;51.244;5.724;2023-10-13T14:11:20;26.00;52.10
68922;DHT22;55959;51.244;5.724;2023-10-13T14:14:12;25.90;52.10
68922;DHT22;55959;51.244;5.724;2023-10-13T14:16:40;25.90;52.20
68922;DHT22;55959;51.244;5.724;2023-10-13T14:19:16;25.90;52.30
68922;DHT22;55959;51.244;5.724;2023-10-13T14:22:01;25.90;52.40
68922;DHT22;55959;51.244;5.724;2023-10-13T14:24:32;25.90;52.40
68922;DHT22;55959;51.244;5.724;2023-10-13T14:27:01;25.90;53.10
68922;DHT22;55959;51.244;5.724;2023-10-13T14:29:35;25.80;52.40
68922;DHT22;55959;51.244;5.724;2023-10-13T14:32:06;25.80;52.20
68922;DHT22;55959;51.244;5.724;2023-10-13T14:34:38;25.80;52.10
68922;DHT22;55959;51.244;5.724;2023-10-13T14:37:19;25.80;52.10
68922;DHT22;55959;51.244;5.724;2023-10-13T14:39:52;25.70;52.30
68922;DHT22;55959;51.244;5.724;2023-10-13T14:42:26;25.70;52.30
68922;DHT22;55959;51.244;5.724;2023-10-13T14:44:53;25.70;52.30
68922;DHT22;55959;51.244;5.724;2023-10-13T14:47:25;25.70;52.50
68922;DHT22;55959;51.244;5.724;2023-10-13T14:52:22;25.70;52.60
68922;DHT22;55959;51.244;5.724;2023-10-13T14:54:47;25.70;52.70
68922;DHT22;55959;51.244;5.724;2023-10-13T14:57:16;25.70;52.80
68922;DHT22;55959;51.244;5.724;2023-10-13T14:59:41;25.70;52.90
68922;DHT22;55959;51.244;5.724;2023-10-13T15:02:07;25.70;53.10
68922;DHT22;55959;51.244;5.724;2023-10-13T15:04:34;25.70;53.60
68922;DHT22;55959;51.244;5.724;2023-10-13T15:07:00;25.70;53.10
68922;DHT22;55959;51.244;5.724;2023-10-13T15:09:29;25.70;52.70
68922;DHT22;55959;51.244;5.724;2023-10-13T15:11:55;25.70;52.90
68922;DHT22;55959;51.244;5.724;2023-10-13T15:14:21;25.70;52.70
68922;DHT22;55959;51.244;5.724;2023-10-13T15:16:48;25.70;52.30
68922;DHT22;55959;51.244;5.724;2023-10-13T15:19:15;25.70;52.40
68922;DHT22;55959;51.244;5.724;2023-10-13T15:21:42;25.60;52.30
68922;DHT22;55959;51.244;5.724;2023-10-13T15:24:09;25.60;52.20
68922;DHT22;55959;51.244;5.724;2023-10-13T15:26:46;25.60;52.30
68922;DHT22;55959;51.244;5.724;2023-10-13T15:29:16;25.60;52.20
68922;DHT22;55959;51.244;5.724;2023-10-13T15:31:46;25.60;52.30
68922;DHT22;55959;51.244;5.724;2023-10-13T15:34:34;25.50;52.40
68922;DHT22;55959;51.244;5.724;2023-10-13T15:37:02;25.50;52.60
68922;DHT22;55959;51.244;5.724;2023-10-13T15:39:30;25.50;52.60
68922;DHT22;55959;51.244;5.724;2023-10-13T15:41:57;25.50;52.70
68922;DHT22;55959;51.244;5.724;2023-10-13T15:44:28;25.50;52.80
68922;DHT22;55959;51.244;5.724;2023-10-13T15:46:56;25.50;52.80
68922;DHT22;55959;51.244;5.724;2023-10-13T15:49:23;25.50;52.80
68922;DHT22;55959;51.244;5.724;2023-10-13T15:51:49;25.50;52.80
68922;DHT22;55959;51.244;5.724;2023-10-13T15:54:17;25.40;52.80
68922;DHT22;55959;51.244;5.724;2023-10-13T15:56:47;25.40;52.80
68922;DHT22;55959;51.244;5.724;2023-10-13T15:59:14;25.40;53.00
68922;DHT22;55959;51.244;5.724;2023-10-13T16:01:40;25.40;53.10
68922;DHT22;55959;51.244;5.724;2023-10-13T16:04:08;25.30;53.30
68922;DHT22;55959;51.244;5.724;2023-10-13T16:06:44;25.30;53.40
68922;DHT22;55959;51.244;5.724;2023-10-13T16:09:12;25.30;53.70
68922;DHT22;55959;51.244;5.724;2023-10-13T16:11:48;25.20;53.90
68922;DHT22;55959;51.244;5.724;2023-10-13T16:14:15;25.10;53.80
68922;DHT22;55959;51.244;5.724;2023-10-13T16:16:47;25.10;53.90
68922;DHT22;55959;51.244;5.724;2023-10-13T16:19:18;25.10;54.00
68922;DHT22;55959;51.244;5.724;2023-10-13T16:21:49;25.00;54.10
68922;DHT22;55959;51.244;5.724;2023-10-13T16:24:16;25.00;54.30
68922;DHT22;55959;51.244;5.724;2023-10-13T16:26:48;25.00;54.50
68922;DHT22;55959;51.244;5.724;2023-10-13T16:29:18;24.90;54.90